createdAt,value
2022-12-04T00:01:22.617Z,90.46
2022-12-04T00:03:56.215Z,90.32
2022-12-04T00:06:24.554Z,90.09
2022-12-04T00:08:52.177Z,90.83
2022-12-04T00:11:22.415Z,90.17
2022-12-04T00:13:49.742Z,90.88
2022-12-04T00:16:22.228Z,90.00
2022-12-04T00:18:49.718Z,90.87
2022-12-04T00:21:18.121Z,90.68
2022-12-04T00:23:45.418Z,90.57
2022-12-04T00:26:17.589Z,90.67
2022-12-04T00:28:45.439Z,90.36
2022-12-04T00:31:16.852Z,90.66
2022-12-04T00:33:43.980Z,90.98
2022-12-04T00:36:13.298Z,90.42
2022-12-04T00:38:40.926Z,91.15
2022-12-04T00:41:12.936Z,90.45
2022-12-04T00:43:40.027Z,90.15
2022-12-04T00:46:07.184Z,90.07
2022-12-04T00:48:34.258Z,90.86
2022-12-04T00:51:13.125Z,90.45
2022-12-04T00:53:40.448Z,90.51
2022-12-04T00:56:10.086Z,90.86
2022-12-04T00:58:37.373Z,90.78
2022-12-04T01:01:08.216Z,90.96
2022-12-04T01:03:35.649Z,91.31
2022-12-04T01:06:03.441Z,90.65
2022-12-04T01:08:30.824Z,90.84
2022-12-04T01:10:57.888Z,91.47
2022-12-04T01:13:26.076Z,91.45
2022-12-04T01:15:53.160Z,91.40
2022-12-04T01:18:20.279Z,90.92
2022-12-04T01:20:49.225Z,90.72
2022-12-04T01:23:19.570Z,90.76
2022-12-04T01:25:59.438Z,91.21
2022-12-04T01:28:26.720Z,90.81
2022-12-04T01:31:21.350Z,91.40
2022-12-04T01:33:49.252Z,91.06
2022-12-04T01:36:19.352Z,91.73
2022-12-04T01:38:46.401Z,91.13
2022-12-04T01:41:15.016Z,90.72
2022-12-04T01:43:42.575Z,91.17
2022-12-04T01:46:10.818Z,91.40
2022-12-04T01:48:45.607Z,91.39
2022-12-04T01:51:20.618Z,91.27
2022-12-04T01:54:10.970Z,90.67
2022-12-04T01:56:49.270Z,90.78
2022-12-04T01:59:18.906Z,90.48
2022-12-04T02:02:03.229Z,91.43
2022-12-04T02:04:31.293Z,91.06
2022-12-04T02:06:58.599Z,91.01
2022-12-04T02:09:27.056Z,90.59
2022-12-04T02:11:54.231Z,91.02
2022-12-04T02:14:39.775Z,90.42
2022-12-04T02:17:25.189Z,91.11
2022-12-04T02:20:12.116Z,90.97
2022-12-04T02:22:48.190Z,91.19
2022-12-04T02:25:29.215Z,90.96
2022-12-04T02:28:15.234Z,90.97
2022-12-04T02:30:44.363Z,90.76
2022-12-04T02:33:22.435Z,91.17
2022-12-04T02:35:59.710Z,90.87
2022-12-04T02:38:51.550Z,91.15
2022-12-04T02:41:45.004Z,90.93
2022-12-04T02:44:26.034Z,91.01
2022-12-04T02:46:59.517Z,90.55
2022-12-04T02:49:40.531Z,90.34
2022-12-04T02:52:12.332Z,90.97
2022-12-04T02:54:43.740Z,90.61
2022-12-04T02:57:17.062Z,90.81
2022-12-04T02:59:47.352Z,90.21
2022-12-04T03:02:22.491Z,90.29
2022-12-04T03:04:51.991Z,90.38
2022-12-04T03:07:28.199Z,90.88
2022-12-04T03:10:00.206Z,90.87
2022-12-04T03:12:50.773Z,90.66
2022-12-04T03:15:32.191Z,90.78
2022-12-04T03:18:07.413Z,90.27
2022-12-04T03:20:36.730Z,90.50
2022-12-04T03:23:11.615Z,90.46
2022-12-04T03:26:04.826Z,90.24
2022-12-04T03:29:08.164Z,90.67
2022-12-04T03:32:16.236Z,90.03
2022-12-04T03:34:57.658Z,90.34
2022-12-04T03:37:31.737Z,90.84
2022-12-04T03:40:24.082Z,90.36
2022-12-04T03:43:06.212Z,90.80
2022-12-04T03:45:51.218Z,90.79
2022-12-04T03:48:28.661Z,90.50
2022-12-04T03:51:39.405Z,90.83
2022-12-04T03:54:14.811Z,90.82
2022-12-04T03:56:46.968Z,90.41
2022-12-04T03:59:40.732Z,90.51
2022-12-04T04:02:13.310Z,90.53
2022-12-04T04:04:43.193Z,90.82
2022-12-04T04:07:21.789Z,90.80
2022-12-04T04:09:52.792Z,90.91
2022-12-04T04:12:23.466Z,90.85
2022-12-04T04:15:15.658Z,90.77
2022-12-04T04:18:04.285Z,90.59
2022-12-04T04:21:12.244Z,90.49
2022-12-04T04:24:02.487Z,90.51
2022-12-04T04:26:35.912Z,90.38
2022-12-04T04:29:03.139Z,90.39
2022-12-04T04:31:36.425Z,90.62
2022-12-04T04:34:21.663Z,90.36
2022-12-04T04:37:20.583Z,90.44
2022-12-04T04:40:14.177Z,90.14
2022-12-04T04:43:18.633Z,90.37
2022-12-04T04:45:55.812Z,90.01
2022-12-04T04:48:36.441Z,89.82
2022-12-04T04:51:04.430Z,90.35
2022-12-04T04:53:39.166Z,90.39
2022-12-04T04:56:07.515Z,90.33
2022-12-04T04:58:35.109Z,89.63
2022-12-04T05:01:09.148Z,89.51
2022-12-04T05:03:36.248Z,89.82
2022-12-04T05:06:03.238Z,89.98
2022-12-04T05:08:30.210Z,90.31
2022-12-04T05:10:57.303Z,89.69
2022-12-04T05:13:24.699Z,89.83
2022-12-04T05:16:10.595Z,89.95
2022-12-04T05:18:38.090Z,90.15
2022-12-04T05:21:09.691Z,90.06
2022-12-04T05:23:36.661Z,89.87
2022-12-04T05:26:05.246Z,89.90
2022-12-04T05:28:32.367Z,89.90
2022-12-04T05:31:01.151Z,90.06
2022-12-04T05:33:28.774Z,89.77
2022-12-04T05:36:00.226Z,89.90
2022-12-04T05:38:27.452Z,89.56
2022-12-04T05:40:54.351Z,89.47
2022-12-04T05:43:21.382Z,89.58
2022-12-04T05:45:48.387Z,89.67
2022-12-04T05:48:15.518Z,89.47
2022-12-04T05:50:42.748Z,89.18
2022-12-04T05:53:09.801Z,89.00
2022-12-04T05:55:37.101Z,88.86
2022-12-04T05:58:04.710Z,89.06
2022-12-04T06:00:32.504Z,88.34
2022-12-04T06:02:59.578Z,88.24
2022-12-04T06:05:26.560Z,88.57
2022-12-04T06:07:53.602Z,88.45
2022-12-04T06:10:20.643Z,88.07
2022-12-04T06:12:47.712Z,87.42
2022-12-04T06:15:14.697Z,87.53
2022-12-04T06:17:41.685Z,87.58
2022-12-04T06:20:11.648Z,87.17
2022-12-04T06:22:39.116Z,87.04
2022-12-04T06:25:07.170Z,87.08
2022-12-04T06:27:34.706Z,87.12
2022-12-04T06:30:02.491Z,86.33
2022-12-04T06:32:31.504Z,86.26
2022-12-04T06:34:58.566Z,85.80
2022-12-04T06:37:26.013Z,85.47
2022-12-04T06:39:53.307Z,85.31
2022-12-04T06:42:20.497Z,85.31
2022-12-04T06:44:47.562Z,85.41
2022-12-04T06:47:14.514Z,85.01
2022-12-04T06:49:41.568Z,84.58
2022-12-04T06:52:08.608Z,84.14
2022-12-04T06:54:37.562Z,84.36
2022-12-04T06:57:04.715Z,84.82
2022-12-04T06:59:32.800Z,84.21
2022-12-04T07:01:59.796Z,84.53
2022-12-04T07:04:26.789Z,83.99
2022-12-04T07:06:56.778Z,83.91
2022-12-04T07:09:23.803Z,83.90
2022-12-04T07:11:50.887Z,83.21
2022-12-04T07:14:17.841Z,82.29
2022-12-04T07:16:45.044Z,81.87
2022-12-04T07:19:14.301Z,82.39
2022-12-04T07:21:42.949Z,82.37
2022-12-04T07:24:18.248Z,82.40
2022-12-04T07:26:46.056Z,83.77
2022-12-04T07:29:13.531Z,83.12
2022-12-04T07:31:40.706Z,83.23
2022-12-04T07:34:08.064Z,83.19
2022-12-04T07:36:35.227Z,83.14
2022-12-04T07:39:02.490Z,83.19
2022-12-04T07:41:29.532Z,82.42
2022-12-04T07:43:56.501Z,82.08
2022-12-04T07:46:26.583Z,81.75
2022-12-04T07:48:57.548Z,81.61
2022-12-04T07:51:27.204Z,82.16
2022-12-04T07:53:55.117Z,81.36
2022-12-04T07:56:22.236Z,80.96
2022-12-04T07:58:49.359Z,79.69
2022-12-04T08:01:19.565Z,78.90
2022-12-04T08:03:49.176Z,77.22
2022-12-04T08:06:18.353Z,76.25
2022-12-04T08:08:46.215Z,73.78
2022-12-04T08:11:16.147Z,72.60
2022-12-04T08:13:43.814Z,72.10
2022-12-04T08:16:12.175Z,71.94
2022-12-04T08:18:40.085Z,69.18
2022-12-04T08:21:12.938Z,67.63
2022-12-04T08:23:41.703Z,65.47
2022-12-04T08:26:09.645Z,64.34
2022-12-04T08:28:37.501Z,61.31
2022-12-04T08:31:15.465Z,60.64
2022-12-04T08:33:44.332Z,61.19
2022-12-04T08:36:13.819Z,60.33
2022-12-04T08:38:41.208Z,59.15
2022-12-04T08:41:11.154Z,60.03
2022-12-04T08:43:41.807Z,58.80
2022-12-04T08:46:11.919Z,57.56
2022-12-04T08:48:39.203Z,57.04
2022-12-04T08:51:10.084Z,57.61
2022-12-04T08:53:37.303Z,57.49
2022-12-04T08:56:05.078Z,56.52
2022-12-04T08:58:32.256Z,56.71
2022-12-04T09:01:12.280Z,56.49
2022-12-04T09:03:39.945Z,56.72
2022-12-04T09:06:08.667Z,56.96
2022-12-04T09:08:36.186Z,57.94
2022-12-04T09:11:11.548Z,56.28
2022-12-04T09:13:41.210Z,55.98
2022-12-04T09:16:11.795Z,56.65
2022-12-04T09:18:40.082Z,57.05
2022-12-04T09:21:09.562Z,57.72
2022-12-04T09:23:38.764Z,55.90
2022-12-04T09:26:16.202Z,56.66
2022-12-04T09:28:43.284Z,56.68
2022-12-04T09:31:10.327Z,57.27
2022-12-04T09:33:37.482Z,57.29
2022-12-04T09:36:04.711Z,57.66
2022-12-04T09:38:31.872Z,58.24
2022-12-04T09:41:18.996Z,58.68
2022-12-04T09:44:18.520Z,56.93
2022-12-04T09:46:52.947Z,57.53
2022-12-04T09:49:28.549Z,56.84
2022-12-04T09:52:01.865Z,56.95
2022-12-04T09:54:35.275Z,57.81
2022-12-04T09:57:12.561Z,56.26
2022-12-04T09:59:39.604Z,54.52
2022-12-04T10:02:09.788Z,57.07
2022-12-04T10:04:36.818Z,55.57
2022-12-04T10:07:27.420Z,54.93
2022-12-04T10:10:19.993Z,55.13
2022-12-04T10:12:53.010Z,54.94
2022-12-04T10:15:45.314Z,54.30
2022-12-04T10:18:50.985Z,55.76
2022-12-04T10:21:50.473Z,56.51
2022-12-04T10:24:34.919Z,56.41
2022-12-04T10:27:09.982Z,57.42
2022-12-04T10:29:40.597Z,57.94
2022-12-04T10:32:34.324Z,57.61
2022-12-04T10:35:42.148Z,57.79
2022-12-04T10:38:49.814Z,58.15
2022-12-04T10:41:29.328Z,58.14
2022-12-04T10:43:56.571Z,57.30
2022-12-04T10:46:34.811Z,56.78
2022-12-04T10:49:12.633Z,56.48
2022-12-04T10:51:41.880Z,56.64
2022-12-04T10:54:33.770Z,57.07
2022-12-04T10:57:02.125Z,56.89
2022-12-04T10:59:30.660Z,58.12
2022-12-04T11:02:25.913Z,58.90
2022-12-04T11:04:57.196Z,59.55
2022-12-04T11:07:29.592Z,58.78
2022-12-04T11:09:59.533Z,57.98
2022-12-04T11:12:26.562Z,59.15
2022-12-04T11:15:14.732Z,58.65
2022-12-04T11:17:41.813Z,58.29
2022-12-04T11:20:16.944Z,59.98
2022-12-04T11:22:51.388Z,60.39
2022-12-04T11:25:20.659Z,59.27
2022-12-04T11:27:52.500Z,61.24
2022-12-04T11:30:32.649Z,61.54
2022-12-04T11:33:00.568Z,60.54
2022-12-04T11:35:29.906Z,61.67
2022-12-04T11:37:59.148Z,61.90
2022-12-04T11:40:27.394Z,61.96
2022-12-04T11:43:02.110Z,62.99
2022-12-04T11:45:29.286Z,62.80
2022-12-04T11:47:59.497Z,62.74
2022-12-04T11:50:46.586Z,63.46
2022-12-04T11:53:20.718Z,62.81
2022-12-04T11:56:06.517Z,62.24
2022-12-04T11:58:55.490Z,61.48
2022-12-04T12:01:38.697Z,61.41
2022-12-04T12:04:27.224Z,63.38
2022-12-04T12:07:16.115Z,64.01
2022-12-04T12:10:05.007Z,63.98
2022-12-04T12:13:02.002Z,64.20
2022-12-04T12:15:57.207Z,65.26
2022-12-04T12:18:42.809Z,64.86
2022-12-04T12:21:20.890Z,66.02
2022-12-04T12:23:56.755Z,66.13
2022-12-04T12:26:34.083Z,66.54
2022-12-04T12:29:28.943Z,66.63
2022-12-04T12:32:13.219Z,67.20
2022-12-04T12:34:45.710Z,68.79
2022-12-04T12:37:26.111Z,68.34
2022-12-04T12:40:26.498Z,68.98
2022-12-04T12:43:01.567Z,69.64
2022-12-04T12:45:44.661Z,69.39
2022-12-04T12:48:19.430Z,70.56
2022-12-04T12:51:08.991Z,71.66
2022-12-04T12:53:44.626Z,71.76
2022-12-04T12:56:13.301Z,72.71
2022-12-04T12:58:46.620Z,72.41
2022-12-04T13:01:25.495Z,73.82
2022-12-04T13:04:05.848Z,73.87
2022-12-04T13:07:06.938Z,74.93
2022-12-04T13:09:37.722Z,74.61
2022-12-04T13:12:16.922Z,74.89
2022-12-04T13:14:48.864Z,75.29
2022-12-04T13:17:24.459Z,75.60
2022-12-04T13:19:55.612Z,76.05
2022-12-04T13:22:43.815Z,76.61
2022-12-04T13:25:37.131Z,76.95
2022-12-04T13:28:23.008Z,76.82
2022-12-04T13:31:27.223Z,77.36
2022-12-04T13:33:59.202Z,78.00
2022-12-04T13:36:32.614Z,77.63
2022-12-04T13:39:19.112Z,77.88
2022-12-04T13:41:46.859Z,77.83
2022-12-04T13:44:21.497Z,77.66
2022-12-04T13:47:09.609Z,78.22
2022-12-04T13:49:39.026Z,78.03
2022-12-04T13:52:37.355Z,78.17
2022-12-04T13:55:04.876Z,78.38
2022-12-04T13:57:31.899Z,78.41
2022-12-04T14:00:24.571Z,78.84
2022-12-04T14:02:55.410Z,78.50
2022-12-04T14:05:41.272Z,78.85
2022-12-04T14:08:24.440Z,78.58
2022-12-04T14:11:06.032Z,78.67
2022-12-04T14:13:51.309Z,78.61
2022-12-04T14:16:29.725Z,78.56
2022-12-04T14:18:59.791Z,78.17
2022-12-04T14:21:26.967Z,78.46
2022-12-04T14:23:53.959Z,78.21
2022-12-04T14:27:09.541Z,78.85
2022-12-04T14:29:36.992Z,78.09
2022-12-04T14:32:16.586Z,77.85
2022-12-04T14:34:44.601Z,78.34
2022-12-04T14:37:43.865Z,77.84
2022-12-04T14:40:23.676Z,78.21
2022-12-04T14:42:51.527Z,78.56
2022-12-04T14:45:28.103Z,78.39
2022-12-04T14:48:09.897Z,78.97
2022-12-04T14:50:47.575Z,78.53
2022-12-04T14:53:52.443Z,78.48
2022-12-04T14:56:51.385Z,78.69
2022-12-04T14:59:21.751Z,79.45
2022-12-04T15:01:51.035Z,79.80
2022-12-04T15:04:26.642Z,79.42
2022-12-04T15:07:00.008Z,80.13
2022-12-04T15:09:47.093Z,80.87
2022-12-04T15:12:33.744Z,80.66
2022-12-04T15:15:25.887Z,80.90
2022-12-04T15:18:15.297Z,81.89
2022-12-04T15:20:44.134Z,81.21
2022-12-04T15:23:17.110Z,81.90
2022-12-04T15:25:47.457Z,81.86
2022-12-04T15:28:20.133Z,81.99
2022-12-04T15:30:49.250Z,81.52
2022-12-04T15:33:21.863Z,82.35
2022-12-04T15:35:58.239Z,81.67
2022-12-04T15:38:25.771Z,81.87
2022-12-04T15:40:58.775Z,82.39
2022-12-04T15:43:31.592Z,81.97
2022-12-04T15:45:59.595Z,81.84
2022-12-04T15:48:31.792Z,82.43
2022-12-04T15:51:05.818Z,82.12
2022-12-04T15:53:37.719Z,82.55
2022-12-04T15:56:16.296Z,82.95
2022-12-04T15:58:58.016Z,82.81
2022-12-04T16:01:25.922Z,82.25
2022-12-04T16:03:56.000Z,82.63
2022-12-04T16:06:30.151Z,82.19
2022-12-04T16:09:26.264Z,82.06
2022-12-04T16:12:03.132Z,82.20
2022-12-04T16:14:30.462Z,82.63
2022-12-04T16:17:06.141Z,82.50
2022-12-04T16:19:37.595Z,82.82
2022-12-04T16:22:13.203Z,82.60
2022-12-04T16:24:40.582Z,83.51
2022-12-04T16:27:13.603Z,82.85
2022-12-04T16:29:40.932Z,82.33
2022-12-04T16:32:16.797Z,82.95
2022-12-04T16:34:44.166Z,82.62
2022-12-04T16:37:17.332Z,82.45
2022-12-04T16:39:45.023Z,83.29
2022-12-04T16:42:24.329Z,83.13
2022-12-04T16:44:52.110Z,82.63
2022-12-04T16:47:20.354Z,82.92
2022-12-04T16:49:51.946Z,82.60
2022-12-04T16:52:19.828Z,82.80
2022-12-04T16:54:47.567Z,83.16
2022-12-04T16:57:14.711Z,82.92
2022-12-04T16:59:42.588Z,82.91
2022-12-04T17:02:23.630Z,82.50
2022-12-04T17:04:55.818Z,83.49
2022-12-04T17:07:24.906Z,83.52
2022-12-04T17:09:52.037Z,82.97
2022-12-04T17:12:19.153Z,83.53
2022-12-04T17:14:46.370Z,83.12
2022-12-04T17:17:13.566Z,82.99
2022-12-04T17:19:41.081Z,83.13
2022-12-04T17:22:08.425Z,83.08
2022-12-04T17:24:38.626Z,83.34
2022-12-04T17:27:13.136Z,83.85
2022-12-04T17:29:40.820Z,83.55
2022-12-04T17:32:11.270Z,83.32
2022-12-04T17:34:38.546Z,83.99
2022-12-04T17:37:06.017Z,84.06
2022-12-04T17:39:33.410Z,84.19
2022-12-04T17:42:00.612Z,83.82
2022-12-04T17:44:28.043Z,83.87
2022-12-04T17:46:55.580Z,84.11
2022-12-04T17:49:23.601Z,83.56
2022-12-04T17:51:51.008Z,84.01
2022-12-04T17:54:20.416Z,84.09
2022-12-04T17:56:53.399Z,83.67
2022-12-04T17:59:23.650Z,83.87
2022-12-04T18:01:51.128Z,84.18
2022-12-04T18:04:19.630Z,83.96
2022-12-04T18:06:48.297Z,84.01
2022-12-04T18:09:17.606Z,84.40
2022-12-04T18:11:47.488Z,83.84
2022-12-04T18:14:18.160Z,84.36
2022-12-04T18:16:48.120Z,84.42
2022-12-04T18:19:16.857Z,84.06
2022-12-04T18:21:44.493Z,84.68
2022-12-04T18:24:13.133Z,84.75
2022-12-04T18:26:46.914Z,84.39
2022-12-04T18:29:17.930Z,84.89
2022-12-04T18:31:46.047Z,84.84
2022-12-04T18:34:14.393Z,84.99
2022-12-04T18:36:42.552Z,85.18
2022-12-04T18:39:13.998Z,85.12
2022-12-04T18:41:43.826Z,85.14
2022-12-04T18:44:12.391Z,85.36
2022-12-04T18:46:41.315Z,85.42
2022-12-04T18:49:10.074Z,85.46
2022-12-04T18:51:40.236Z,85.29
2022-12-04T18:54:18.135Z,85.56
2022-12-04T18:56:45.831Z,85.46
2022-12-04T18:59:24.293Z,85.79
2022-12-04T19:01:52.178Z,85.59
2022-12-04T19:04:22.316Z,85.66
2022-12-04T19:06:55.245Z,85.68
2022-12-04T19:09:47.093Z,85.72
2022-12-04T19:12:13.219Z,85.72
2022-12-04T19:14:40.646Z,85.96
2022-12-04T19:17:08.383Z,85.97
2022-12-04T19:19:35.733Z,85.65
2022-12-04T19:22:02.882Z,85.84
2022-12-04T19:24:30.024Z,85.85
2022-12-04T19:26:57.213Z,85.90
2022-12-04T19:29:24.855Z,86.09
2022-12-04T19:31:57.615Z,85.72
2022-12-04T19:34:26.191Z,86.13
2022-12-04T19:36:55.117Z,85.96
2022-12-04T19:39:22.767Z,86.00
2022-12-04T19:41:51.895Z,85.91
2022-12-04T19:47:08.603Z,86.19
2022-12-04T19:49:35.773Z,86.22
2022-12-04T19:52:03.291Z,86.32
2022-12-04T19:54:30.485Z,86.17
2022-12-04T19:57:06.771Z,86.34
2022-12-04T19:59:37.693Z,86.40
2022-12-04T20:02:08.139Z,86.37
2022-12-04T20:04:35.429Z,86.19
2022-12-04T20:07:02.494Z,86.13
2022-12-04T20:09:29.414Z,86.31
2022-12-04T20:11:56.615Z,86.33
2022-12-04T20:14:24.625Z,86.15
2022-12-04T20:16:52.793Z,86.45
2022-12-04T20:19:20.541Z,86.66
2022-12-04T20:21:48.049Z,86.72
2022-12-04T20:24:16.625Z,86.45
2022-12-04T20:26:46.623Z,86.72
2022-12-04T20:29:15.855Z,86.75
2022-12-04T20:31:45.427Z,86.69
2022-12-04T20:34:15.368Z,86.95
2022-12-04T20:36:43.563Z,86.79
2022-12-04T20:39:12.534Z,86.68
2022-12-04T20:41:39.907Z,87.06
2022-12-04T20:44:09.503Z,87.39
2022-12-04T20:46:38.663Z,86.83
2022-12-04T20:49:07.954Z,86.98
2022-12-04T20:51:40.811Z,86.97
2022-12-04T20:54:10.978Z,86.98
2022-12-04T20:56:38.560Z,86.76
2022-12-04T20:59:09.003Z,86.91
2022-12-04T21:01:36.950Z,87.27
2022-12-04T21:04:04.958Z,87.24
2022-12-04T21:06:36.065Z,87.45
2022-12-04T21:09:09.160Z,87.23
2022-12-04T21:11:53.922Z,87.16
2022-12-04T21:14:44.301Z,87.56
2022-12-04T21:17:16.840Z,87.50
2022-12-04T21:19:44.452Z,87.24
2022-12-04T21:22:11.654Z,87.46
2022-12-04T21:24:39.381Z,87.11
2022-12-04T21:27:08.059Z,87.36
2022-12-04T21:29:37.062Z,87.35
2022-12-04T21:32:05.753Z,87.37
2022-12-04T21:34:33.303Z,87.30
2022-12-04T21:37:00.303Z,87.15
2022-12-04T21:39:27.346Z,87.24
2022-12-04T21:42:13.024Z,87.43
2022-12-04T21:44:40.176Z,87.25
2022-12-04T21:47:07.226Z,87.66
2022-12-04T21:49:34.173Z,87.71
2022-12-04T21:52:04.036Z,87.79
2022-12-04T21:54:30.957Z,87.75
2022-12-04T21:56:58.166Z,87.71
2022-12-04T21:59:26.189Z,87.41
2022-12-04T22:01:54.589Z,87.36
2022-12-04T22:04:22.088Z,87.62
2022-12-04T22:06:49.294Z,87.39
2022-12-04T22:09:16.533Z,87.77
2022-12-04T22:11:44.017Z,87.25
2022-12-04T22:14:12.121Z,87.01
2022-12-04T22:16:42.751Z,87.30
2022-12-04T22:19:12.581Z,87.58
2022-12-04T22:21:40.294Z,87.43
2022-12-04T22:24:27.303Z,87.48
2022-12-04T22:26:54.462Z,87.31
2022-12-04T22:29:51.622Z,87.41
2022-12-04T22:32:08.770Z,87.46
2022-12-04T22:34:35.656Z,87.42
2022-12-04T22:37:02.522Z,87.51
2022-12-04T22:39:29.514Z,86.95
2022-12-04T22:41:56.614Z,86.93
2022-12-04T22:44:23.633Z,86.91
2022-12-04T22:46:50.773Z,87.21
2022-12-04T22:49:17.940Z,87.12
2022-12-04T22:51:44.858Z,87.21
2022-12-04T22:54:15.436Z,87.17
2022-12-04T22:56:44.292Z,87.75
2022-12-04T22:59:11.552Z,87.69
2022-12-04T23:01:38.786Z,87.91
2022-12-04T23:04:05.910Z,88.08
2022-12-04T23:06:34.357Z,87.89
2022-12-04T23:09:05.501Z,87.72
2022-12-04T23:11:32.414Z,88.27
2022-12-04T23:14:01.899Z,87.64
2022-12-04T23:16:32.084Z,87.37
2022-12-04T23:18:59.514Z,87.94
2022-12-04T23:21:27.626Z,87.56
2022-12-04T23:23:55.571Z,87.85
2022-12-04T23:26:30.092Z,87.75
2022-12-04T23:28:57.903Z,87.77
2022-12-04T23:31:25.719Z,87.85
2022-12-04T23:33:52.741Z,87.76
2022-12-04T23:36:20.259Z,88.33
2022-12-04T23:38:47.785Z,87.94
2022-12-04T23:41:17.540Z,87.73
2022-12-04T23:43:45.467Z,87.65
2022-12-04T23:46:14.423Z,87.90
2022-12-04T23:48:43.042Z,87.85
2022-12-04T23:51:11.709Z,87.72
2022-12-04T23:53:39.132Z,87.76
2022-12-04T23:56:20.074Z,87.82
2022-12-04T23:58:49.010Z,87.70
